createdAt,value
2023-05-13T03:59:20.278Z,236.00
2023-05-13T04:00:20.440Z,248.00
2023-05-13T04:01:20.197Z,256.00
2023-05-13T04:02:20.208Z,268.00
2023-05-13T04:03:20.218Z,276.00
2023-05-13T04:04:20.196Z,284.00
2023-05-13T04:05:20.205Z,296.00
2023-05-13T04:06:20.155Z,304.00
2023-05-13T04:07:20.161Z,316.00
2023-05-13T04:08:20.161Z,324.00
2023-05-13T04:09:20.150Z,332.00
2023-05-13T04:10:20.368Z,344.00
2023-05-13T04:11:20.152Z,356.00
2023-05-13T04:12:20.119Z,364.00
2023-05-13T04:13:20.122Z,376.00
2023-05-13T04:14:20.113Z,384.00
2023-05-13T04:15:20.133Z,396.00
2023-05-13T04:16:20.155Z,404.00
2023-05-13T04:17:20.148Z,416.00
2023-05-13T04:18:20.091Z,424.00
2023-05-13T04:19:20.118Z,432.00
2023-05-13T04:20:20.324Z,444.00
2023-05-13T04:21:20.105Z,452.00
2023-05-13T04:23:20.076Z,472.00
2023-05-13T04:24:20.074Z,484.00
2023-05-13T04:25:20.075Z,492.00
2023-05-13T04:26:20.083Z,500.00
2023-05-13T04:27:20.086Z,508.00
2023-05-13T04:28:20.056Z,520.00
2023-05-13T04:29:20.063Z,528.00
2023-05-13T04:30:20.266Z,536.00
2023-05-13T04:31:20.103Z,544.00
2023-05-13T04:32:20.048Z,556.00
2023-05-13T04:33:20.052Z,564.00
2023-05-13T04:34:20.047Z,568.00
2023-05-13T04:35:20.078Z,580.00
2023-05-13T04:36:20.039Z,588.00
2023-05-13T04:37:20.020Z,596.00
2023-05-13T04:38:20.027Z,604.00
2023-05-13T04:39:20.016Z,612.00
2023-05-13T04:40:20.191Z,620.00
2023-05-13T04:41:20.007Z,628.00
2023-05-13T04:42:20.027Z,640.00
2023-05-13T04:43:20.013Z,648.00
2023-05-13T04:44:20.002Z,652.00
2023-05-13T04:45:20.004Z,664.00
2023-05-13T04:46:20.031Z,672.00
2023-05-13T04:47:20.071Z,680.00
2023-05-13T04:48:20.014Z,688.00
2023-05-13T04:49:19.989Z,704.00
2023-05-13T04:50:20.110Z,716.00
2023-05-13T04:51:19.971Z,736.00
2023-05-13T04:52:19.970Z,748.00
2023-05-13T04:53:19.980Z,760.00
2023-05-13T04:54:19.956Z,776.00
2023-05-13T04:55:19.969Z,816.00
2023-05-13T04:56:19.945Z,904.00
2023-05-13T04:57:19.954Z,1020.00
2023-05-13T04:58:19.976Z,1096.00
2023-05-13T04:59:19.958Z,1140.00
2023-05-13T05:00:20.082Z,1168.00
2023-05-13T05:01:19.987Z,1160.00
2023-05-13T05:02:19.925Z,1112.00
2023-05-13T05:03:19.952Z,1096.00
2023-05-13T05:04:19.987Z,1152.00
2023-05-13T05:05:19.953Z,1284.00
2023-05-13T05:06:19.930Z,1424.00
2023-05-13T05:07:19.914Z,1456.00
2023-05-13T05:08:19.929Z,1404.00
2023-05-13T05:09:19.919Z,1360.00
2023-05-13T05:10:20.251Z,1304.00
2023-05-13T05:11:19.915Z,1232.00
2023-05-13T05:12:19.904Z,1176.00
2023-05-13T05:13:19.913Z,1148.00
2023-05-13T05:14:19.897Z,1196.00
2023-05-13T05:15:19.885Z,1268.00
2023-05-13T05:16:19.909Z,1208.00
2023-05-13T05:17:19.966Z,1120.00
2023-05-13T05:18:19.929Z,1084.00
2023-05-13T05:19:19.999Z,1048.00
2023-05-13T05:20:20.117Z,1004.00
2023-05-13T05:21:19.876Z,976.00
2023-05-13T05:22:19.861Z,952.00
2023-05-13T05:23:19.873Z,944.00
2023-05-13T05:24:19.864Z,960.00
2023-05-13T05:25:19.891Z,1016.00
2023-05-13T05:26:19.865Z,1060.00
2023-05-13T05:27:19.859Z,1060.00
2023-05-13T05:28:19.873Z,1060.00
2023-05-13T05:29:19.856Z,1076.00
2023-05-13T05:30:20.107Z,1104.00
2023-05-13T05:31:19.925Z,1192.00
2023-05-13T05:32:19.879Z,1296.00
2023-05-13T05:33:19.842Z,1360.00
2023-05-13T05:34:19.831Z,1420.00
2023-05-13T05:35:19.851Z,1492.00
2023-05-13T05:36:20.551Z,1596.00
2023-05-13T05:37:19.843Z,1748.00
2023-05-13T05:38:19.843Z,1964.00
2023-05-13T05:39:19.816Z,2220.00
2023-05-13T05:40:19.950Z,2412.00
2023-05-13T05:41:19.821Z,2556.00
2023-05-13T05:42:19.818Z,2676.00
2023-05-13T05:43:19.826Z,2768.00
2023-05-13T05:44:19.808Z,2828.00
2023-05-13T05:45:19.803Z,2872.00
2023-05-13T05:46:19.885Z,2884.00
2023-05-13T05:47:19.802Z,2924.00
2023-05-13T05:48:19.787Z,2952.00
2023-05-13T05:49:19.782Z,2984.00
2023-05-13T05:50:20.030Z,3020.00
2023-05-13T05:51:19.856Z,3056.00
2023-05-13T05:52:19.779Z,3088.00
2023-05-13T05:53:19.788Z,3112.00
2023-05-13T05:54:19.769Z,3132.00
2023-05-13T05:55:19.778Z,3156.00
2023-05-13T05:56:19.826Z,3164.00
2023-05-13T05:57:19.758Z,3188.00
2023-05-13T05:58:19.761Z,3196.00
2023-05-13T05:59:19.756Z,3208.00
2023-05-13T06:00:19.971Z,3228.00
2023-05-13T06:01:19.765Z,3240.00
2023-05-13T06:02:19.799Z,3268.00
2023-05-13T06:03:19.858Z,3288.00
2023-05-13T06:04:19.776Z,3312.00
2023-05-13T06:05:19.745Z,3356.00
2023-05-13T06:06:19.771Z,3400.00
2023-05-13T06:07:19.782Z,3436.00
2023-05-13T06:08:19.727Z,3460.00
2023-05-13T06:09:19.729Z,3488.00
2023-05-13T06:10:19.935Z,3516.00
2023-05-13T06:11:19.758Z,3544.00
2023-05-13T06:12:19.732Z,3572.00
2023-05-13T06:13:19.723Z,3592.00
2023-05-13T06:14:19.720Z,3620.00
2023-05-13T06:15:19.732Z,3636.00
2023-05-13T06:16:19.749Z,3652.00
2023-05-13T06:17:19.710Z,3660.00
2023-05-13T06:18:19.735Z,3684.00
2023-05-13T06:19:19.706Z,3716.00
2023-05-13T06:20:20.020Z,3736.00
2023-05-13T06:21:19.701Z,3764.00
2023-05-13T06:22:19.710Z,3800.00
2023-05-13T06:23:19.734Z,3824.00
2023-05-13T06:24:19.700Z,3844.00
2023-05-13T06:25:19.739Z,3864.00
2023-05-13T06:26:19.713Z,3900.00
2023-05-13T06:27:19.694Z,3920.00
2023-05-13T06:28:19.709Z,3936.00
2023-05-13T06:29:19.712Z,3956.00
2023-05-13T06:30:20.065Z,3976.00
2023-05-13T06:31:19.728Z,4016.00
2023-05-13T06:32:19.689Z,4040.00
2023-05-13T06:33:19.758Z,4072.00
2023-05-13T06:34:19.691Z,4100.00
2023-05-13T06:35:19.719Z,4116.00
2023-05-13T06:36:19.690Z,4128.00
2023-05-13T06:37:19.672Z,4160.00
2023-05-13T06:38:19.680Z,4192.00
2023-05-13T06:39:19.786Z,4204.00
2023-05-13T06:40:19.990Z,4224.00
2023-05-13T06:41:19.681Z,4244.00
2023-05-13T06:42:19.666Z,4244.00
2023-05-13T06:43:19.696Z,4264.00
2023-05-13T06:44:19.667Z,4292.00
2023-05-13T06:45:19.663Z,4296.00
2023-05-13T06:46:19.725Z,4316.00
2023-05-13T06:47:21.795Z,4336.00
2023-05-13T06:48:19.658Z,4352.00
2023-05-13T06:49:19.716Z,4364.00
2023-05-13T06:50:19.779Z,4380.00
2023-05-13T06:51:19.657Z,4384.00
2023-05-13T06:52:19.680Z,4412.00
2023-05-13T06:53:19.665Z,4416.00
2023-05-13T06:54:19.666Z,4436.00
2023-05-13T06:55:19.726Z,4444.00
2023-05-13T06:56:19.654Z,4468.00
2023-05-13T06:57:20.763Z,4472.00
2023-05-13T06:58:19.667Z,4484.00
2023-05-13T06:59:19.650Z,4484.00
2023-05-13T07:00:19.764Z,4492.00
2023-05-13T07:01:19.723Z,4496.00
2023-05-13T07:02:19.658Z,4500.00
2023-05-13T07:03:19.663Z,4504.00
2023-05-13T07:04:19.772Z,4512.00
2023-05-13T07:05:19.666Z,4520.00
2023-05-13T07:06:19.648Z,4532.00
2023-05-13T07:07:19.653Z,4528.00
2023-05-13T07:08:19.632Z,4532.00
2023-05-13T07:09:19.635Z,4544.00
2023-05-13T07:10:19.757Z,4540.00
2023-05-13T07:11:19.680Z,4544.00
2023-05-13T07:12:19.633Z,4556.00
2023-05-13T07:13:19.647Z,4568.00
2023-05-13T07:14:19.642Z,4568.00
2023-05-13T07:15:19.785Z,4556.00
2023-05-13T07:16:19.629Z,4572.00
2023-05-13T07:17:19.656Z,4568.00
2023-05-13T07:18:19.654Z,4572.00
2023-05-13T07:19:19.787Z,4568.00
2023-05-13T07:20:20.087Z,4556.00
2023-05-13T07:21:19.637Z,4560.00
2023-05-13T07:22:19.617Z,4572.00
2023-05-13T07:23:19.618Z,4576.00
2023-05-13T07:24:19.622Z,4584.00
2023-05-13T07:25:19.640Z,4596.00
2023-05-13T07:26:19.650Z,4600.00
2023-05-13T07:27:19.637Z,4600.00
2023-05-13T07:28:19.624Z,4600.00
2023-05-13T07:29:19.630Z,4596.00
2023-05-13T07:30:19.709Z,4604.00
2023-05-13T07:31:19.703Z,4608.00
2023-05-13T07:32:19.658Z,4616.00
2023-05-13T07:33:19.621Z,4620.00
2023-05-13T07:34:19.619Z,4616.00
2023-05-13T07:35:19.757Z,4624.00
2023-05-13T07:36:19.643Z,4624.00
2023-05-13T07:37:19.612Z,4624.00
2023-05-13T07:38:19.615Z,4632.00
2023-05-13T07:39:19.633Z,4632.00
2023-05-13T07:40:19.672Z,4616.00
2023-05-13T07:41:19.624Z,4612.00
2023-05-13T07:42:19.612Z,4596.00
2023-05-13T07:43:19.653Z,4600.00
2023-05-13T07:44:19.630Z,4584.00
2023-05-13T07:45:19.717Z,4568.00
2023-05-13T07:46:19.647Z,4568.00
2023-05-13T07:47:19.781Z,4560.00
2023-05-13T07:48:19.612Z,4536.00
2023-05-13T07:49:19.620Z,4532.00
2023-05-13T07:50:19.628Z,4544.00
2023-05-13T07:51:19.608Z,4540.00
2023-05-13T07:52:19.638Z,4516.00
2023-05-13T07:53:20.018Z,4508.00
2023-05-13T07:54:19.624Z,4504.00
2023-05-13T07:55:19.785Z,4492.00
2023-05-13T07:56:19.618Z,4464.00
2023-05-13T07:57:19.632Z,4452.00
2023-05-13T07:58:19.646Z,4444.00
2023-05-13T07:59:19.646Z,4436.00
2023-05-13T08:00:19.635Z,4404.00
2023-05-13T08:01:19.609Z,4396.00
2023-05-13T08:02:19.628Z,4380.00
2023-05-13T08:03:19.697Z,4364.00
2023-05-13T08:04:19.780Z,4340.00
2023-05-13T08:05:19.760Z,4316.00
2023-05-13T08:06:19.632Z,4300.00
2023-05-13T08:07:19.610Z,4288.00
2023-05-13T08:08:19.616Z,4260.00
2023-05-13T08:09:19.624Z,4236.00
2023-05-13T08:10:19.614Z,4224.00
2023-05-13T08:11:19.615Z,4208.00
2023-05-13T08:12:19.611Z,4192.00
2023-05-13T08:13:19.623Z,4180.00
2023-05-13T08:14:19.634Z,4164.00
2023-05-13T08:15:19.787Z,4144.00
2023-05-13T08:16:19.625Z,4132.00
2023-05-13T08:17:19.626Z,4112.00
2023-05-13T08:18:19.641Z,4096.00
2023-05-13T08:19:19.783Z,4080.00
2023-05-13T08:20:19.620Z,4068.00
2023-05-13T08:21:19.622Z,4052.00
2023-05-13T08:22:19.616Z,4032.00
2023-05-13T08:23:19.624Z,4024.00
2023-05-13T08:24:19.646Z,4008.00
2023-05-13T08:25:19.870Z,4000.00
2023-05-13T08:26:19.622Z,3980.00
2023-05-13T08:27:19.616Z,3968.00
2023-05-13T08:28:19.612Z,3956.00
2023-05-13T08:29:19.658Z,3940.00
2023-05-13T08:30:19.640Z,3920.00
2023-05-13T08:31:19.701Z,3908.00
2023-05-13T08:32:19.859Z,3884.00
2023-05-13T08:33:19.625Z,3852.00
2023-05-13T08:34:19.618Z,3840.00
2023-05-13T08:35:19.781Z,3828.00
2023-05-13T08:36:19.631Z,3816.00
2023-05-13T08:37:19.634Z,3800.00
2023-05-13T08:38:19.660Z,3796.00
2023-05-13T08:39:19.616Z,3784.00
2023-05-13T08:40:19.635Z,3760.00
2023-05-13T08:41:21.850Z,3756.00
2023-05-13T08:42:19.631Z,3752.00
2023-05-13T08:43:19.616Z,3744.00
2023-05-13T08:44:19.624Z,3724.00
2023-05-13T08:45:19.757Z,3708.00
2023-05-13T08:46:19.674Z,3684.00
2023-05-13T08:47:19.682Z,3676.00
2023-05-13T08:48:19.628Z,3668.00
2023-05-13T08:49:19.644Z,3660.00
2023-05-13T08:50:19.632Z,3660.00
2023-05-13T08:51:19.621Z,3644.00
2023-05-13T08:52:19.625Z,3632.00
2023-05-13T08:53:19.633Z,3620.00
2023-05-13T08:54:21.092Z,3608.00
2023-05-13T08:55:19.822Z,3592.00
2023-05-13T08:56:19.652Z,3580.00
2023-05-13T08:57:19.624Z,3564.00
2023-05-13T08:58:19.635Z,3552.00
2023-05-13T08:59:19.629Z,3548.00
2023-05-13T09:00:21.566Z,3528.00
2023-05-13T09:01:19.667Z,3512.00
2023-05-13T09:02:19.631Z,3496.00
2023-05-13T09:03:19.675Z,3480.00
2023-05-13T09:04:19.649Z,3460.00
2023-05-13T09:05:19.824Z,3456.00
2023-05-13T09:06:19.633Z,3448.00
2023-05-13T09:07:19.637Z,3436.00
2023-05-13T09:08:19.667Z,3420.00
2023-05-13T09:09:19.638Z,3412.00
2023-05-13T09:10:19.640Z,3400.00
2023-05-13T09:11:19.652Z,3396.00
2023-05-13T09:12:19.654Z,3392.00
2023-05-13T09:13:19.665Z,3392.00
2023-05-13T09:14:19.643Z,3360.00
2023-05-13T09:15:19.829Z,3356.00
2023-05-13T09:16:19.662Z,3352.00
2023-05-13T09:17:19.649Z,3352.00
2023-05-13T09:18:19.774Z,3340.00
2023-05-13T09:19:19.853Z,3336.00
2023-05-13T09:20:19.668Z,3328.00
2023-05-13T09:21:19.664Z,3312.00
2023-05-13T09:22:19.681Z,3304.00
2023-05-13T09:23:19.671Z,3296.00
2023-05-13T09:24:19.678Z,3288.00
2023-05-13T09:25:20.025Z,3264.00
2023-05-13T09:26:19.653Z,3252.00
2023-05-13T09:27:19.655Z,3240.00
2023-05-13T09:28:19.653Z,3208.00
2023-05-13T09:29:19.662Z,3192.00
2023-05-13T09:30:19.751Z,3192.00
2023-05-13T09:31:19.733Z,3184.00
2023-05-13T09:32:19.665Z,3180.00
2023-05-13T09:33:19.664Z,3164.00
2023-05-13T09:34:19.657Z,3168.00
2023-05-13T09:35:19.858Z,3168.00
2023-05-13T09:36:19.668Z,3168.00
2023-05-13T09:37:19.659Z,3172.00
2023-05-13T09:38:19.656Z,3168.00
2023-05-13T09:39:19.666Z,3160.00
2023-05-13T09:40:19.805Z,3160.00
2023-05-13T09:41:19.718Z,3156.00
2023-05-13T09:42:19.740Z,3152.00
2023-05-13T09:43:19.669Z,3152.00
2023-05-13T09:44:19.667Z,3140.00
2023-05-13T09:45:19.923Z,3132.00
2023-05-13T09:46:19.692Z,3132.00
2023-05-13T09:47:19.679Z,3140.00
2023-05-13T09:48:19.697Z,3128.00
2023-05-13T09:49:19.700Z,3136.00
2023-05-13T09:50:19.900Z,3144.00
2023-05-13T09:51:19.731Z,3140.00
2023-05-13T09:52:19.678Z,3140.00
2023-05-13T09:53:19.680Z,3156.00
2023-05-13T09:54:19.693Z,3152.00
2023-05-13T09:55:19.741Z,3152.00
2023-05-13T09:56:19.694Z,3164.00
2023-05-13T09:57:19.681Z,3176.00
2023-05-13T09:58:19.727Z,3188.00
2023-05-13T09:59:19.769Z,3184.00
2023-05-13T10:00:31.802Z,3192.00
2023-05-13T10:01:19.727Z,3192.00
2023-05-13T10:02:19.713Z,3196.00
2023-05-13T10:13:49.945Z,3244.00
2023-05-13T10:14:49.900Z,3264.00
2023-05-13T10:15:49.911Z,3300.00
2023-05-13T10:16:49.946Z,3320.00
2023-05-13T10:17:49.987Z,3332.00
2023-05-13T10:18:49.964Z,3348.00
2023-05-13T10:19:49.964Z,3352.00
2023-05-13T10:20:49.918Z,3368.00
2023-05-13T10:21:49.905Z,3380.00
2023-05-13T10:22:49.912Z,3408.00
2023-05-13T10:23:49.919Z,3420.00
2023-05-13T10:24:49.903Z,3432.00
2023-05-13T10:25:49.938Z,3436.00
2023-05-13T10:26:49.920Z,3452.00
2023-05-13T10:27:49.942Z,3476.00
2023-05-13T10:28:49.911Z,3496.00
2023-05-13T10:29:49.924Z,3524.00
2023-05-13T10:30:49.917Z,3548.00
2023-05-13T10:31:49.949Z,3568.00
2023-05-13T10:32:49.998Z,3584.00
2023-05-13T10:33:49.950Z,3600.00
2023-05-13T10:34:49.938Z,3620.00
2023-05-13T10:35:49.933Z,3632.00
2023-05-13T10:36:49.951Z,3640.00
2023-05-13T10:37:49.921Z,3660.00
2023-05-13T10:38:49.970Z,3672.00
2023-05-13T10:39:49.966Z,3692.00
2023-05-13T10:40:49.940Z,3712.00
2023-05-13T10:41:50.005Z,3736.00
2023-05-13T10:42:49.982Z,3752.00
2023-05-13T10:43:49.937Z,3772.00
2023-05-13T10:44:49.950Z,3792.00
2023-05-13T10:45:50.023Z,3820.00
2023-05-13T10:46:50.075Z,3844.00
2023-05-13T10:47:50.204Z,3872.00
2023-05-13T10:48:50.055Z,3892.00
2023-05-13T10:49:49.986Z,3924.00
2023-05-13T10:50:49.959Z,3960.00
2023-05-13T10:51:49.960Z,3980.00
2023-05-13T10:52:49.991Z,4012.00
2023-05-13T10:53:49.990Z,4032.00
2023-05-13T10:54:49.964Z,4068.00
2023-05-13T10:55:49.982Z,4088.00
2023-05-13T10:56:49.971Z,4120.00
2023-05-13T10:57:49.973Z,4160.00
2023-05-13T10:58:49.999Z,4192.00
2023-05-13T10:59:49.989Z,4216.00
2023-05-13T11:00:50.026Z,4240.00
2023-05-13T11:01:50.075Z,4264.00
2023-05-13T11:02:50.085Z,4288.00
2023-05-13T11:03:50.060Z,4332.00
2023-05-13T11:04:50.026Z,4360.00
2023-05-13T11:05:50.015Z,4384.00
2023-05-13T11:06:50.070Z,4416.00
2023-05-13T11:07:50.012Z,4460.00
2023-05-13T11:08:50.009Z,4468.00
2023-05-13T11:09:50.027Z,4528.00
2023-05-13T11:10:50.173Z,4548.00
2023-05-13T11:11:50.028Z,4608.00
2023-05-13T11:12:50.035Z,4640.00
2023-05-13T11:13:50.045Z,4684.00
2023-05-13T11:14:50.086Z,4716.00
2023-05-13T11:15:50.089Z,4764.00
2023-05-13T11:16:50.050Z,4820.00
2023-05-13T11:17:50.095Z,4856.00
2023-05-13T11:18:50.083Z,4932.00
2023-05-13T11:19:50.089Z,4936.00
2023-05-13T11:20:52.877Z,4984.00
2023-05-13T11:21:50.063Z,5012.00
2023-05-13T11:22:50.074Z,5128.00
2023-05-13T11:23:50.070Z,5168.00
2023-05-13T11:24:50.081Z,5168.00
2023-05-13T11:25:50.082Z,5212.00
2023-05-13T11:26:50.091Z,5256.00
2023-05-13T11:27:50.100Z,5328.00
2023-05-13T11:28:50.095Z,5332.00
2023-05-13T11:29:50.101Z,5420.00
2023-05-13T11:30:50.103Z,5452.00
2023-05-13T11:31:50.276Z,5460.00
2023-05-13T11:32:50.143Z,3148.00
2023-05-13T11:33:50.128Z,3116.00
2023-05-13T11:34:50.126Z,3192.00
2023-05-13T11:35:50.126Z,3176.00
2023-05-13T11:36:50.187Z,5772.00
2023-05-13T11:37:50.154Z,3340.00
2023-05-13T11:38:50.141Z,5760.00
2023-05-13T11:39:50.144Z,6020.00
2023-05-13T11:40:50.159Z,6004.00
2023-05-13T11:41:50.194Z,6016.00
2023-05-13T11:42:50.178Z,5932.00
2023-05-13T11:43:50.172Z,3180.00
2023-05-13T11:44:50.199Z,3116.00
2023-05-13T11:45:50.246Z,3204.00
2023-05-13T11:46:50.179Z,6280.00
2023-05-13T11:47:50.244Z,6404.00
2023-05-13T11:48:50.227Z,6524.00
2023-05-13T11:49:50.229Z,6728.00
2023-05-13T11:50:50.205Z,6856.00
2023-05-13T11:51:50.202Z,6884.00
2023-05-13T11:52:50.204Z,6948.00
2023-05-13T11:53:50.212Z,7036.00
2023-05-13T11:54:50.206Z,7244.00
2023-05-13T11:55:50.216Z,7384.00
2023-05-13T11:56:50.232Z,4572.00
2023-05-13T11:57:50.233Z,3932.00
2023-05-13T11:58:50.235Z,4212.00
2023-05-13T11:59:50.230Z,6744.00
2023-05-13T12:00:50.229Z,7316.00
2023-05-13T12:01:50.275Z,7400.00
2023-05-13T12:02:50.410Z,7192.00
2023-05-13T12:03:50.267Z,7408.00
2023-05-13T12:04:50.359Z,7916.00
2023-05-13T12:05:50.271Z,8348.00
2023-05-13T12:06:50.259Z,8356.00
2023-05-13T12:07:50.284Z,8248.00
2023-05-13T12:08:50.279Z,8292.00
2023-05-13T12:09:50.292Z,5972.00
2023-05-13T12:10:50.296Z,4876.00
2023-05-13T12:11:50.296Z,3968.00
2023-05-13T12:12:50.332Z,3856.00
2023-05-13T12:13:50.296Z,3732.00
2023-05-13T12:14:50.354Z,3592.00
2023-05-13T12:15:50.380Z,3832.00
2023-05-13T12:16:50.315Z,8264.00
2023-05-13T12:17:50.428Z,8244.00
2023-05-13T12:18:50.376Z,8472.00
2023-05-13T12:19:50.350Z,8660.00
2023-05-13T12:20:50.357Z,8832.00
2023-05-13T12:21:50.354Z,9000.00
2023-05-13T12:22:50.365Z,9072.00
2023-05-13T12:23:50.348Z,9232.00
2023-05-13T12:24:50.353Z,9332.00
2023-05-13T12:25:50.359Z,9344.00
2023-05-13T12:26:50.361Z,9460.00
2023-05-13T12:27:50.400Z,9528.00
2023-05-13T12:28:50.385Z,4812.00
2023-05-13T12:29:50.403Z,4364.00
2023-05-13T12:30:50.438Z,4060.00
2023-05-13T12:31:50.518Z,3804.00
2023-05-13T12:32:50.425Z,3584.00
2023-05-13T12:33:50.412Z,3388.00
2023-05-13T12:34:50.407Z,3296.00
2023-05-13T12:35:50.450Z,9804.00
2023-05-13T12:36:50.439Z,9992.00
2023-05-13T12:37:50.445Z,10328.00
2023-05-13T12:38:50.435Z,10704.00
2023-05-13T12:39:50.461Z,10988.00
2023-05-13T12:40:50.488Z,11556.00
2023-05-13T12:41:50.471Z,11532.00
2023-05-13T12:42:50.459Z,4332.00
2023-05-13T12:43:50.493Z,4144.00
2023-05-13T12:44:50.483Z,3968.00
2023-05-13T12:45:50.485Z,3772.00
2023-05-13T12:46:50.503Z,3580.00
2023-05-13T12:47:50.549Z,3496.00
2023-05-13T12:48:50.499Z,11680.00
2023-05-13T12:49:50.510Z,13056.00
2023-05-13T12:50:50.529Z,13168.00
2023-05-13T12:51:50.556Z,13592.00
2023-05-13T12:52:50.536Z,14064.00
2023-05-13T12:53:50.562Z,14296.00
2023-05-13T12:54:50.510Z,4892.00
2023-05-13T12:55:50.508Z,4244.00
2023-05-13T12:56:50.519Z,4356.00
2023-05-13T12:57:50.538Z,4388.00
2023-05-13T12:58:50.568Z,15984.00
2023-05-13T12:59:50.533Z,15136.00
2023-05-13T13:00:50.591Z,15304.00
2023-05-13T13:01:50.577Z,4300.00
2023-05-13T13:02:50.671Z,4224.00
2023-05-13T13:03:50.706Z,3856.00
2023-05-13T13:04:50.588Z,3448.00
2023-05-13T13:05:50.584Z,3464.00
2023-05-13T13:06:50.586Z,3836.00
2023-05-13T13:07:50.588Z,4248.00
2023-05-13T13:08:50.597Z,4292.00
2023-05-13T13:09:50.610Z,5388.00
2023-05-13T13:10:50.613Z,12872.00
2023-05-13T13:11:50.605Z,21248.00
2023-05-13T13:12:50.596Z,17172.00
2023-05-13T13:13:50.614Z,6080.00
2023-05-13T13:14:50.599Z,23040.00
2023-05-13T13:15:50.643Z,23392.00
2023-05-13T13:16:50.697Z,24160.00
2023-05-13T13:17:50.684Z,24096.00
2023-05-13T13:18:52.386Z,24288.00
2023-05-13T13:19:50.661Z,5852.00
2023-05-13T13:20:50.638Z,5536.00
2023-05-13T13:21:50.628Z,5656.00
2023-05-13T13:22:50.646Z,5260.00
2023-05-13T13:23:50.645Z,5960.00
2023-05-13T13:24:50.663Z,4220.00
2023-05-13T13:25:50.688Z,3804.00
2023-05-13T13:26:50.688Z,3700.00
2023-05-13T13:27:50.662Z,3460.00
2023-05-13T13:28:50.696Z,3076.00
2023-05-13T13:29:50.673Z,2768.00
2023-05-13T13:30:50.685Z,2468.00
2023-05-13T13:31:50.755Z,2232.00
2023-05-13T13:32:50.787Z,2092.00
2023-05-13T13:33:50.706Z,2076.00
2023-05-13T13:34:50.703Z,2120.00
2023-05-13T13:35:50.733Z,2216.00
2023-05-13T13:36:50.726Z,2436.00
2023-05-13T13:37:50.732Z,2800.00
2023-05-13T13:38:50.727Z,3528.00
2023-05-13T13:39:50.735Z,4900.00
2023-05-13T13:40:50.715Z,25216.00
2023-05-13T13:41:50.732Z,19264.00
2023-05-13T13:42:50.719Z,7972.00
2023-05-13T13:43:50.773Z,25056.00
2023-05-13T13:44:50.790Z,27616.00
2023-05-13T13:45:50.760Z,27616.00
2023-05-13T13:46:50.845Z,21728.00
2023-05-13T13:49:24.144Z,27584.00
2023-05-13T13:50:23.396Z,26880.00
2023-05-13T13:51:23.280Z,26720.00
2023-05-13T13:52:23.287Z,26144.00
2023-05-13T13:53:23.295Z,25920.00
2023-05-13T13:54:23.321Z,25664.00
2023-05-13T13:55:23.297Z,25632.00
2023-05-13T13:56:23.299Z,25152.00
2023-05-13T13:57:23.339Z,24416.00
2023-05-13T13:58:23.317Z,7828.00
2023-05-13T13:59:23.324Z,24352.00
2023-05-13T14:00:23.552Z,23744.00
2023-05-13T14:01:23.374Z,20224.00
2023-05-13T14:02:23.517Z,5860.00
2023-05-13T14:03:23.534Z,5340.00
2023-05-13T14:04:23.390Z,5040.00
2023-05-13T14:05:23.378Z,4392.00
2023-05-13T14:06:23.357Z,3580.00
2023-05-13T14:07:23.368Z,2948.00
2023-05-13T14:08:23.424Z,2332.00
2023-05-13T14:09:23.392Z,2004.00
2023-05-13T14:10:23.538Z,1816.00
2023-05-13T14:11:23.394Z,1716.00
2023-05-13T14:12:23.398Z,1660.00
2023-05-13T14:13:23.438Z,1644.00
2023-05-13T14:14:23.411Z,1648.00
2023-05-13T14:15:23.416Z,1708.00
2023-05-13T14:16:23.515Z,1824.00
2023-05-13T14:17:23.495Z,1992.00
2023-05-13T14:18:23.511Z,2208.00
2023-05-13T14:19:23.459Z,2556.00
2023-05-13T14:20:23.653Z,16724.00
2023-05-13T14:21:23.416Z,17248.00
2023-05-13T14:22:23.458Z,16156.00
2023-05-13T14:23:23.432Z,17288.00
2023-05-13T14:24:23.438Z,18208.00
2023-05-13T14:25:23.459Z,18464.00
2023-05-13T14:26:23.450Z,23712.00
2023-05-13T14:27:23.474Z,35040.00
2023-05-13T14:28:25.151Z,42752.00
2023-05-13T14:29:23.475Z,48224.00
2023-05-13T14:30:23.757Z,54816.00
2023-05-13T14:31:23.486Z,57440.00
2023-05-13T14:32:23.509Z,49472.00
2023-05-13T14:33:23.470Z,31328.00
2023-05-13T14:34:23.510Z,19296.00
2023-05-13T14:35:23.486Z,18176.00
2023-05-13T14:36:23.492Z,17760.00
2023-05-13T14:37:23.502Z,20736.00
2023-05-13T14:38:23.504Z,27200.00
2023-05-13T14:39:23.508Z,20064.00
2023-05-13T14:40:23.706Z,5056.00
2023-05-13T14:41:23.520Z,4000.00
2023-05-13T14:42:23.568Z,3448.00
2023-05-13T14:43:23.528Z,3000.00
2023-05-13T14:44:23.531Z,2720.00
2023-05-13T14:45:23.553Z,2664.00
2023-05-13T14:46:23.598Z,2768.00
2023-05-13T14:47:23.558Z,2968.00
2023-05-13T14:48:23.558Z,3144.00
2023-05-13T14:49:23.565Z,3444.00
2023-05-13T14:50:23.759Z,4036.00
2023-05-13T14:51:23.576Z,5352.00
2023-05-13T14:52:23.575Z,13204.00
2023-05-13T14:53:23.579Z,43072.00
2023-05-13T14:54:23.585Z,21920.00
2023-05-13T14:55:23.579Z,27712.00
2023-05-13T14:56:23.607Z,40160.00
2023-05-13T14:57:23.611Z,43680.00
2023-05-13T14:58:23.606Z,44416.00
2023-05-13T14:59:23.614Z,44576.00
2023-05-13T15:00:23.758Z,44448.00
2023-05-13T15:01:23.670Z,44192.00
2023-05-13T15:02:23.677Z,45152.00
2023-05-13T15:03:23.642Z,40992.00
2023-05-13T15:04:23.633Z,43104.00
2023-05-13T15:05:23.643Z,43200.00
2023-05-13T15:06:23.634Z,43072.00
2023-05-13T15:07:23.632Z,41504.00
2023-05-13T15:08:23.633Z,41952.00
2023-05-13T15:09:23.657Z,42880.00
2023-05-13T15:10:23.944Z,41472.00
2023-05-13T15:11:23.645Z,39744.00
2023-05-13T15:12:23.683Z,38816.00
2023-05-13T15:13:23.668Z,30528.00
2023-05-13T15:14:23.658Z,39072.00
2023-05-13T15:15:23.664Z,38528.00
2023-05-13T15:16:23.766Z,35968.00
2023-05-13T15:17:23.780Z,34656.00
2023-05-13T15:18:23.714Z,5208.00
2023-05-13T15:19:23.697Z,5492.00
2023-05-13T15:20:23.980Z,34144.00
2023-05-13T15:21:23.717Z,32928.00
2023-05-13T15:22:23.732Z,32192.00
2023-05-13T15:23:23.732Z,31296.00
2023-05-13T15:24:23.736Z,5076.00
2023-05-13T15:25:23.758Z,5308.00
2023-05-13T15:26:23.732Z,5016.00
2023-05-13T15:27:23.753Z,4756.00
2023-05-13T15:28:23.753Z,4664.00
2023-05-13T15:29:23.781Z,4860.00
2023-05-13T15:30:23.909Z,5192.00
2023-05-13T15:31:23.845Z,21248.00
2023-05-13T15:32:23.761Z,17888.00
2023-05-13T15:33:23.775Z,15156.00
2023-05-13T15:34:23.787Z,9472.00
2023-05-13T15:35:23.782Z,6040.00
2023-05-13T15:36:23.770Z,4824.00
2023-05-13T15:37:23.786Z,3936.00
2023-05-13T15:38:23.787Z,4300.00
2023-05-13T15:39:23.802Z,2684.00
2023-05-13T15:40:23.880Z,1924.00
2023-05-13T15:41:23.812Z,1484.00
2023-05-13T15:42:23.794Z,1288.00
2023-05-13T15:43:23.809Z,1112.00
2023-05-13T15:44:23.824Z,984.00
2023-05-13T15:45:23.829Z,884.00
2023-05-13T15:46:23.927Z,812.00
2023-05-13T15:47:23.988Z,768.00
2023-05-13T15:48:23.904Z,752.00
2023-05-13T15:49:23.884Z,748.00
2023-05-13T15:50:24.088Z,748.00
2023-05-13T15:51:23.824Z,760.00
2023-05-13T15:52:23.853Z,780.00
2023-05-13T15:53:23.822Z,796.00
2023-05-13T15:54:23.850Z,816.00
2023-05-13T15:55:23.832Z,852.00
2023-05-13T15:56:23.856Z,892.00
2023-05-13T15:57:23.846Z,944.00
2023-05-13T15:58:23.853Z,1016.00
2023-05-13T15:59:23.856Z,1100.00
2023-05-13T16:00:24.159Z,1196.00
2023-05-13T16:01:23.882Z,1272.00
2023-05-13T16:12:58.713Z,2852.00
2023-05-13T16:13:58.706Z,2828.00
2023-05-13T16:14:58.685Z,2804.00
2023-05-13T16:15:58.724Z,2804.00
2023-05-13T16:16:58.674Z,2788.00
2023-05-13T16:17:58.705Z,2840.00
2023-05-13T16:18:58.756Z,2844.00
2023-05-13T16:19:58.852Z,2856.00
2023-05-13T16:20:58.668Z,2884.00
2023-05-13T16:21:58.668Z,2892.00
2023-05-13T16:22:58.687Z,2876.00
2023-05-13T16:23:58.718Z,2848.00
2023-05-13T16:24:58.700Z,2840.00
2023-05-13T16:25:58.676Z,2824.00
2023-05-13T16:26:58.682Z,2800.00
2023-05-13T16:27:58.854Z,2772.00